Thomas, New Mexico
Current Conditions -  °F | °C
As of 4:55 PM on Monday 24 Nov 2014 (Local Time) from KCAO Reporting Station
Scattered Clouds Scattered Clouds  
Wind Chill:   Ceiling: Unl
Heat Index:   Visibility: 10mi
Dew Point: -12°   Wind: 6mph
Humidity: 33%   Direction: 340°NNW
Pressure: 30.07"   Gusts: NA
Location:  36.2639°N, 103.376°W
Report Text: KCAO 242355Z AUTO 34005KT 10SM SCT110 03/M12 A3007 RMK AO2 SLP202 T00281122 10083 20028 53027
Loading
Personal Weather Stations






























Interactive Weather Map New forecast layout! Learn more

10-Day Weather Forecast

Advertisements
Track Severe Weather on mobile